sim
Sign-in with your pilot id or email,
or register
Callsign
Passwort

Schedule Details

Flight Number: DLH1711 (1)
Departure: Dubrovnik Airport (LDDU) at 17:25
Arrival: Munich Airport (EDDM) at 19:10
Route: Lufthansa Passenger Schedule. Enter filed route here before submitting Pirep.

Weather Information
Getting current METAR information for LDDU 260700Z 22014KT 190V260 9999 FEW036 SCT046 BKN072 19/09 Q0996 TEMPO -TSRA FEW025CB BKN030
Getting current METAR information for EDDM 260720Z 27012KT 9999 FEW012 BKN017 08/05 Q0999 NOSIG

Schedule Frequency

Route Map